CYOC

Old Crow Airport

Old Crow, , Canada
METAR CYOC 211500Z 00000KT 2SM IC BR BKN002 BKN200 M41/M45 A3005 RMK FG4ST1CI1 FROIN VIS NE 5/8 SLP230
Observed Flight Rules
Jan-21 @ 15:00 UTC (an hour ago) Instrument Flight Rules
Visibility Clouds Conditions
2 miles
  • Broken at 200' AGL
  • Broken at 20,000' AGL
  • Ice crystals
  • Mist
Temperatures Readings
Current -41°C / -42°F
Dewpoint -45°C / -49°F
Humidity 65%
Altimeter 30.05" Hg
Pressure 1023 hPa
Elevation 251
METAR CYOC 211500Z 00000KT 2SM IC BR BKN002 BKN200 M41/M45 A3005 RMK FG4ST1CI1 FROIN VIS NE 5/8 SLP230
Observed Flight Rules
Jan-21 @ 15:00 UTC
(an hour ago)
LIFR
Clouds
  • Broken at 200' AGL
  • Broken at 20,000' AGL
Conditions
  • Ice crystals
  • Mist
Temperature Dewpoint
-41°C / -42°F -45°C / -49°F
Humidity Altimeter Pressure
65% 30.05" Hg 1023 hPa